Country
Station

 

Weather  for  Talara  -  Peru    Peru

  
21 °C (70 °F)
    
 
 

Current METAR for Talara is :

SPYL 181400Z 16014KT 9999 BKN020 21/17 Q1015 RMK BIRD HAZARD RWY 17/35 PP000

 

This is a report for Talara - Peru.
 
The report was made 57 minutes ago, at 14:00 UTC .
The wind was blowing at a speed of 7.2 meters per second (16.1 miles per hour) from south/southeast (160°).
 
The temperature was 21 °C (70 °F), with a dew-point at 17 °C (63 °F).
The atmospheric pressure was 1015 hPa (29.97 inHg).
The relative humidity was 77.9%.
 
There were broken clouds at a height of 610 meters (2000 feet).
 
The overall visibility was greater than 10 kilometers (6.2 miles).
 

 
 
 
 

Country :   A   B   C   D   E   F   G   H   I   J   K   L   M   N   O   P   Q   R   S   T   U   V   W   Y   Z

 

Site Info  |  Disclaimer  |  Credits  |  Privacy
Contact us  |  Add to favorites
© 2013-2018 METARs - All rights reserved